createdAt,value
2023-04-27T00:00:31.012Z,4.72
2023-04-27T00:03:16.795Z,5.99
2023-04-27T00:06:02.590Z,4.64
2023-04-27T00:08:47.860Z,6.09
2023-04-27T00:11:33.350Z,6.08
2023-04-27T00:14:18.610Z,5.96
2023-04-27T00:17:04.233Z,4.83
2023-04-27T00:19:49.531Z,5.81
2023-04-27T00:22:34.898Z,5.73
2023-04-27T00:25:20.320Z,4.84
2023-04-27T00:28:05.764Z,4.80
2023-04-27T00:30:54.306Z,4.60
2023-04-27T00:33:39.785Z,5.71
2023-04-27T00:36:24.978Z,4.65
2023-04-27T00:39:10.667Z,5.83
2023-04-27T00:41:56.555Z,4.88
2023-04-27T00:44:42.094Z,5.78
2023-04-27T00:47:29.198Z,5.48
2023-04-27T00:50:14.959Z,4.56
2023-04-27T00:53:02.020Z,4.73
2023-04-27T00:55:47.296Z,5.11
2023-04-27T00:58:33.048Z,5.53
2023-04-27T01:01:20.649Z,5.68
2023-04-27T01:04:06.534Z,5.39
2023-04-27T01:06:52.402Z,5.05
2023-04-27T01:09:37.824Z,5.69
2023-04-27T01:12:23.218Z,4.31
2023-04-27T01:15:09.586Z,5.61
2023-04-27T01:18:02.140Z,5.66
2023-04-27T01:20:48.014Z,5.59
2023-04-27T01:23:33.620Z,4.50
2023-04-27T01:26:19.104Z,5.04
2023-04-27T01:29:04.511Z,5.59
2023-04-27T01:31:49.958Z,5.07
2023-04-27T01:34:35.312Z,4.82
2023-04-27T01:37:20.687Z,4.25
2023-04-27T01:40:06.718Z,5.47
2023-04-27T01:42:51.836Z,1.47
2023-04-27T01:45:37.006Z,5.50
2023-04-27T01:48:22.880Z,5.28
2023-04-27T01:51:09.022Z,4.29
2023-04-27T01:53:54.582Z,5.40
2023-04-27T01:56:39.812Z,4.21
2023-04-27T01:59:25.180Z,4.10
2023-04-27T02:02:10.444Z,4.02
2023-04-27T02:04:56.341Z,4.00
2023-04-27T02:07:41.883Z,5.24
2023-04-27T02:10:27.255Z,5.22
2023-04-27T02:13:15.631Z,5.16
2023-04-27T02:16:04.219Z,4.84
2023-04-27T02:18:49.882Z,5.09
2023-04-27T02:21:35.126Z,5.04
2023-04-27T02:24:20.424Z,4.62
2023-04-27T02:27:06.162Z,5.17
2023-04-27T02:29:52.269Z,4.59
2023-04-27T02:32:38.451Z,5.33
2023-04-27T02:35:23.996Z,4.05
2023-04-27T02:38:10.403Z,4.21
2023-04-27T02:40:57.304Z,5.13
2023-04-27T02:43:42.643Z,3.97
2023-04-27T02:46:28.038Z,5.34
2023-04-27T02:49:13.569Z,4.35
2023-04-27T02:51:59.256Z,4.09
2023-04-27T02:54:44.571Z,4.90
2023-04-27T02:57:29.888Z,4.97
2023-04-27T03:00:15.528Z,3.99
2023-04-27T03:03:01.640Z,5.16
2023-04-27T03:05:47.140Z,5.28
2023-04-27T03:08:32.317Z,5.29
2023-04-27T03:11:17.810Z,5.21
2023-04-27T03:14:03.853Z,5.29
2023-04-27T03:16:49.542Z,5.00
2023-04-27T03:19:35.038Z,5.29
2023-04-27T03:22:20.458Z,5.22
2023-04-27T03:25:06.877Z,5.30
2023-04-27T03:27:52.381Z,5.32
2023-04-27T03:30:40.493Z,5.00
2023-04-27T03:33:28.188Z,5.24
2023-04-27T03:36:13.525Z,4.64
2023-04-27T03:39:00.462Z,5.26
2023-04-27T03:41:46.462Z,4.82
2023-04-27T03:44:33.550Z,4.86
2023-04-27T03:47:19.101Z,5.04
2023-04-27T03:50:05.557Z,4.08
2023-04-27T03:52:51.081Z,4.24
2023-04-27T03:55:44.048Z,4.32
2023-04-27T03:58:30.904Z,5.29
2023-04-27T04:01:32.048Z,4.19
2023-04-27T04:04:17.748Z,4.12
2023-04-27T04:07:03.357Z,5.26
2023-04-27T04:09:48.990Z,4.00
2023-04-27T04:12:34.229Z,5.11
2023-04-27T04:15:20.364Z,3.88
2023-04-27T04:18:07.525Z,4.94
2023-04-27T04:20:53.240Z,4.89
2023-04-27T04:23:41.201Z,3.98
2023-04-27T04:26:27.334Z,5.29
2023-04-27T04:29:13.175Z,5.02
2023-04-27T04:31:59.094Z,5.26
2023-04-27T04:34:49.431Z,4.81
2023-04-27T04:37:38.215Z,5.31
2023-04-27T04:40:23.713Z,4.03
2023-04-27T04:43:09.088Z,5.10
2023-04-27T04:45:54.369Z,5.37
2023-04-27T04:48:39.724Z,5.41
2023-04-27T04:51:25.032Z,4.37
2023-04-27T04:54:10.554Z,4.11
2023-04-27T04:56:56.473Z,3.90
2023-04-27T04:59:44.268Z,4.14
2023-04-27T05:02:30.255Z,4.48
2023-04-27T05:05:16.176Z,5.00
2023-04-27T05:08:01.563Z,4.75
2023-04-27T05:10:51.311Z,4.32
2023-04-27T05:13:39.270Z,5.64
2023-04-27T05:16:26.580Z,4.55
2023-04-27T05:19:12.520Z,4.71
2023-04-27T05:21:58.833Z,4.51
2023-04-27T05:24:44.601Z,5.73
2023-04-27T05:27:31.047Z,5.84
2023-04-27T05:30:16.773Z,5.75
2023-04-27T05:33:05.224Z,5.88
2023-04-27T05:35:51.434Z,5.87
2023-04-27T05:38:40.325Z,4.60
2023-04-27T05:41:25.589Z,5.88
2023-04-27T05:44:11.240Z,5.90
2023-04-27T05:46:57.165Z,5.43
2023-04-27T05:49:42.623Z,5.93
2023-04-27T05:52:31.058Z,5.86
2023-04-27T05:55:16.713Z,4.77
2023-04-27T05:58:08.427Z,5.64
2023-04-27T06:00:54.875Z,6.09
2023-04-27T06:03:40.479Z,4.83
2023-04-27T06:06:26.349Z,4.81
2023-04-27T06:09:12.020Z,5.96
2023-04-27T06:12:00.527Z,6.07
2023-04-27T06:14:46.245Z,5.86
2023-04-27T06:17:31.566Z,4.82
2023-04-27T06:20:17.116Z,5.91
2023-04-27T06:23:02.577Z,4.61
2023-04-27T06:25:47.915Z,5.87
2023-04-27T06:28:33.941Z,4.59
2023-04-27T06:31:19.530Z,4.78
2023-04-27T06:34:04.874Z,5.29
2023-04-27T06:36:50.217Z,4.68
2023-04-27T06:39:36.919Z,4.90
2023-04-27T06:42:22.672Z,5.96
2023-04-27T06:45:08.331Z,5.98
2023-04-27T06:47:54.108Z,5.65
2023-04-27T06:50:39.759Z,4.79
2023-04-27T06:53:25.477Z,5.58
2023-04-27T06:56:11.989Z,4.93
2023-04-27T06:58:57.296Z,5.01
2023-04-27T07:01:42.663Z,6.33
2023-04-27T07:04:28.528Z,6.34
2023-04-27T07:07:14.209Z,6.29
2023-04-27T07:09:59.487Z,6.61
2023-04-27T07:12:44.884Z,6.89
2023-04-27T07:15:33.432Z,7.18
2023-04-27T07:18:18.908Z,7.57
2023-04-27T07:21:04.413Z,7.63
2023-04-27T07:23:49.870Z,7.10
2023-04-27T07:26:36.544Z,7.11
2023-04-27T07:29:26.841Z,8.11
2023-04-27T07:32:12.800Z,8.28
2023-04-27T07:34:58.706Z,8.27
2023-04-27T07:37:45.617Z,7.53
2023-04-27T07:40:32.861Z,8.51
2023-04-27T07:43:19.116Z,7.80
2023-04-27T07:46:04.507Z,9.10
2023-04-27T07:48:50.796Z,9.10
2023-04-27T07:51:36.363Z,8.11
2023-04-27T07:54:21.732Z,9.15
2023-04-27T07:57:11.852Z,9.32
2023-04-27T07:59:57.696Z,9.09
2023-04-27T08:02:43.141Z,9.00
2023-04-27T08:05:29.847Z,9.06
2023-04-27T08:08:16.110Z,8.09
2023-04-27T08:11:01.500Z,9.03
2023-04-27T08:13:46.793Z,9.07
2023-04-27T08:16:32.433Z,7.93
2023-04-27T08:19:18.503Z,8.65
2023-04-27T08:22:04.125Z,8.66
2023-04-27T08:24:49.428Z,8.49
2023-04-27T08:27:40.590Z,7.64
2023-04-27T08:30:26.093Z,8.07
2023-04-27T08:33:11.998Z,8.32
2023-04-27T08:35:57.613Z,8.51
2023-04-27T08:38:43.131Z,7.68
2023-04-27T08:41:28.731Z,8.78
2023-04-27T08:44:15.061Z,8.34
2023-04-27T08:47:01.048Z,7.77
2023-04-27T08:49:46.890Z,8.81
2023-04-27T08:52:32.488Z,8.46
2023-04-27T08:55:18.007Z,9.41
2023-04-27T08:58:04.226Z,8.82
2023-04-27T09:00:52.515Z,9.31
2023-04-27T09:03:38.655Z,9.53
2023-04-27T09:06:35.041Z,8.04
2023-04-27T09:09:24.515Z,9.16
2023-04-27T09:12:20.959Z,7.98
2023-04-27T09:15:08.604Z,8.05
2023-04-27T09:17:56.480Z,8.19
2023-04-27T09:20:46.115Z,9.51
2023-04-27T09:23:33.914Z,9.49
2023-04-27T09:26:28.697Z,9.72
2023-04-27T09:29:14.506Z,10.08
2023-04-27T09:32:00.919Z,10.00
2023-04-27T09:34:47.007Z,8.89
2023-04-27T09:37:32.513Z,8.63
2023-04-27T09:40:19.805Z,9.74
2023-04-27T09:43:06.619Z,9.00
2023-04-27T09:45:52.211Z,9.52
2023-04-27T09:48:39.249Z,9.48
2023-04-27T09:51:24.710Z,8.69
2023-04-27T09:54:13.501Z,9.37
2023-04-27T09:57:18.102Z,9.85
2023-04-27T10:00:12.773Z,10.03
2023-04-27T10:03:29.867Z,10.02
2023-04-27T10:06:46.749Z,9.96
2023-04-27T10:09:37.451Z,8.71
2023-04-27T10:12:36.226Z,8.93
2023-04-27T10:15:27.180Z,10.29
2023-04-27T10:18:12.993Z,9.45
2023-04-27T10:21:10.070Z,10.15
2023-04-27T10:23:56.002Z,9.69
2023-04-27T10:26:47.015Z,9.91
2023-04-27T10:29:42.107Z,10.22
2023-04-27T10:32:29.214Z,9.20
2023-04-27T10:35:14.617Z,9.54
2023-04-27T10:38:08.606Z,9.95
2023-04-27T10:41:02.162Z,9.08
2023-04-27T10:43:47.889Z,10.11
2023-04-27T10:46:36.107Z,9.27
2023-04-27T10:49:22.740Z,10.63
2023-04-27T10:52:08.497Z,10.26
2023-04-27T10:54:53.979Z,10.71
2023-04-27T10:57:47.309Z,10.17
2023-04-27T11:00:37.392Z,9.38
2023-04-27T11:03:24.326Z,9.88
2023-04-27T11:06:10.326Z,10.43
2023-04-27T11:08:56.614Z,10.25
2023-04-27T11:11:49.084Z,9.50
2023-04-27T11:14:36.872Z,10.24
2023-04-27T11:17:29.966Z,9.79
2023-04-27T11:20:24.733Z,9.92
2023-04-27T11:23:11.214Z,10.09
2023-04-27T11:25:57.726Z,10.75
2023-04-27T11:28:46.318Z,10.38
2023-04-27T11:32:01.845Z,10.48
2023-04-27T11:35:01.984Z,10.29
2023-04-27T11:37:58.421Z,10.56
2023-04-27T11:40:47.201Z,10.75
2023-04-27T11:43:34.593Z,10.89
2023-04-27T11:46:22.303Z,9.87
2023-04-27T11:49:11.844Z,11.17
2023-04-27T11:51:58.724Z,10.80
2023-04-27T11:54:53.184Z,11.38
2023-04-27T11:57:38.987Z,10.08
2023-04-27T12:00:25.508Z,11.28
2023-04-27T12:03:11.469Z,11.33
2023-04-27T12:08:43.722Z,11.31
2023-04-27T12:11:29.043Z,11.10
2023-04-27T12:14:14.837Z,10.92
2023-04-27T12:17:01.010Z,10.92
2023-04-27T12:19:46.724Z,10.91
2023-04-27T12:22:32.597Z,10.64
2023-04-27T12:25:20.073Z,9.68
2023-04-27T12:28:06.230Z,10.66
2023-04-27T12:30:52.639Z,10.68
2023-04-27T12:33:38.537Z,10.43
2023-04-27T12:36:23.993Z,9.83
2023-04-27T12:39:27.611Z,11.04
2023-04-27T12:42:13.047Z,11.12
2023-04-27T12:44:58.541Z,10.47
2023-04-27T12:48:01.192Z,10.74
2023-04-27T12:50:48.556Z,10.43
2023-04-27T12:53:33.870Z,10.71
2023-04-27T12:56:19.722Z,10.19
2023-04-27T12:59:06.270Z,10.32
2023-04-27T13:01:52.074Z,10.27
2023-04-27T13:04:37.614Z,10.33
2023-04-27T13:07:23.372Z,10.28
2023-04-27T13:10:09.413Z,10.19
2023-04-27T13:12:54.927Z,10.13
2023-04-27T13:15:40.348Z,10.22
2023-04-27T13:18:26.137Z,9.62
2023-04-27T13:21:11.502Z,10.42
2023-04-27T13:23:59.539Z,9.53
2023-04-27T13:26:46.520Z,10.76
2023-04-27T13:29:33.483Z,10.73
2023-04-27T13:32:20.308Z,9.89
2023-04-27T13:35:06.142Z,10.69
2023-04-27T13:37:53.833Z,10.18
2023-04-27T13:40:39.939Z,9.92
2023-04-27T13:43:27.097Z,10.93
2023-04-27T13:46:13.777Z,10.05
2023-04-27T13:48:59.339Z,10.67
2023-04-27T13:51:44.773Z,11.23
2023-04-27T13:54:30.459Z,11.07
2023-04-27T13:57:16.213Z,11.43
2023-04-27T14:00:01.967Z,11.41
2023-04-27T14:02:52.753Z,11.44
2023-04-27T14:05:38.783Z,11.65
2023-04-27T14:08:24.250Z,11.43
2023-04-27T14:11:13.126Z,11.36
2023-04-27T14:13:58.941Z,11.49
2023-04-27T14:16:44.380Z,10.26
2023-04-27T14:19:31.622Z,11.33
2023-04-27T14:22:17.515Z,11.08
2023-04-27T14:25:03.019Z,10.57
2023-04-27T14:27:48.493Z,10.82
2023-04-27T14:30:34.866Z,10.19
2023-04-27T14:33:21.008Z,11.31
2023-04-27T14:36:07.059Z,11.22
2023-04-27T14:38:52.755Z,11.09
2023-04-27T14:41:38.150Z,11.03
2023-04-27T14:44:24.194Z,10.88
2023-04-27T14:47:09.988Z,9.73
2023-04-27T14:49:55.977Z,10.81
2023-04-27T14:52:41.358Z,9.52
2023-04-27T14:55:27.222Z,10.47
2023-04-27T14:58:16.939Z,10.57
2023-04-27T15:01:06.606Z,10.56
2023-04-27T15:03:56.066Z,10.53
2023-04-27T15:06:43.555Z,10.51
2023-04-27T15:09:29.533Z,10.25
2023-04-27T15:12:15.482Z,10.49
2023-04-27T15:15:00.848Z,10.60
2023-04-27T15:17:46.313Z,10.61
2023-04-27T15:20:32.201Z,10.39
2023-04-27T15:23:18.353Z,10.32
2023-04-27T15:26:04.185Z,9.65
2023-04-27T15:28:49.611Z,9.54
2023-04-27T15:31:35.326Z,9.75
2023-04-27T15:34:21.143Z,10.43
2023-04-27T15:37:07.925Z,10.74
2023-04-27T15:39:54.383Z,9.81
2023-04-27T15:42:40.048Z,10.59
2023-04-27T15:45:25.609Z,9.37
2023-04-27T15:48:12.161Z,10.09
2023-04-27T15:50:57.514Z,10.30
2023-04-27T15:53:43.006Z,9.87
2023-04-27T15:56:30.583Z,10.12
2023-04-27T15:59:26.319Z,9.94
2023-04-27T16:02:13.613Z,9.75
2023-04-27T16:04:59.818Z,10.28
2023-04-27T16:07:46.435Z,10.21
2023-04-27T16:10:31.599Z,9.38
2023-04-27T16:13:16.901Z,9.12
2023-04-27T16:16:02.602Z,10.23
2023-04-27T16:18:48.215Z,9.97
2023-04-27T16:21:34.179Z,10.13
2023-04-27T16:24:19.864Z,9.08
2023-04-27T16:27:05.591Z,10.07
2023-04-27T16:29:50.919Z,9.37
2023-04-27T16:32:37.771Z,9.99
2023-04-27T16:35:23.645Z,10.25
2023-04-27T16:38:09.063Z,10.13
2023-04-27T16:40:56.075Z,10.21
2023-04-27T16:43:41.526Z,10.16
2023-04-27T16:46:27.032Z,10.13
2023-04-27T16:49:12.773Z,10.10
2023-04-27T16:51:58.579Z,9.54
2023-04-27T16:54:43.968Z,9.48
2023-04-27T16:57:29.546Z,9.27
2023-04-27T17:00:15.351Z,8.94
2023-04-27T17:03:01.091Z,9.88
2023-04-27T17:05:46.851Z,8.72
2023-04-27T17:08:32.200Z,9.73
2023-04-27T17:11:19.252Z,8.76
2023-04-27T17:14:04.837Z,9.71
2023-04-27T17:16:51.147Z,9.50
2023-04-27T17:19:36.879Z,9.74
2023-04-27T17:22:22.216Z,8.77
2023-04-27T17:25:09.354Z,9.78
2023-04-27T17:27:55.460Z,9.49
2023-04-27T17:30:42.539Z,9.09
2023-04-27T17:33:28.594Z,9.56
2023-04-27T17:36:19.842Z,9.67
2023-04-27T17:39:14.776Z,9.30
2023-04-27T17:42:02.997Z,9.67
2023-04-27T17:45:03.049Z,9.63
2023-04-27T17:47:58.392Z,9.55
2023-04-27T17:50:45.002Z,9.40
2023-04-27T17:53:32.086Z,9.14
2023-04-27T17:56:18.554Z,9.19
2023-04-27T17:59:05.438Z,9.04
2023-04-27T18:01:51.438Z,9.09
2023-04-27T18:04:37.219Z,8.07
2023-04-27T18:07:23.550Z,8.68
2023-04-27T18:10:09.621Z,8.65
2023-04-27T18:12:55.548Z,8.63
2023-04-27T18:15:41.034Z,8.66
2023-04-27T18:18:27.152Z,8.75
2023-04-27T18:21:12.577Z,9.04
2023-04-27T18:23:58.162Z,9.10
2023-04-27T18:26:44.510Z,9.17
2023-04-27T18:29:30.523Z,7.93
2023-04-27T18:32:18.725Z,9.13
2023-04-27T18:35:07.038Z,8.16
2023-04-27T18:37:52.107Z,8.80
2023-04-27T18:40:37.608Z,9.29
2023-04-27T18:43:22.986Z,9.22
2023-04-27T18:46:08.906Z,9.18
2023-04-27T18:48:54.690Z,9.12
2023-04-27T18:51:40.074Z,8.95
2023-04-27T18:54:25.635Z,9.06
2023-04-27T18:57:11.460Z,9.07
2023-04-27T18:59:57.283Z,8.86
2023-04-27T19:02:43.221Z,9.07
2023-04-27T19:05:28.521Z,8.90
2023-04-27T19:08:14.387Z,9.10
2023-04-27T19:11:00.404Z,9.07
2023-04-27T19:13:45.794Z,8.89
2023-04-27T19:16:31.384Z,8.72
2023-04-27T19:19:18.886Z,8.96
2023-04-27T19:22:05.810Z,7.95
2023-04-27T19:24:51.384Z,9.08
2023-04-27T19:27:37.049Z,9.05
2023-04-27T19:30:23.153Z,8.04
2023-04-27T19:33:09.558Z,9.06
2023-04-27T19:35:55.354Z,9.02
2023-04-27T19:38:41.201Z,8.93
2023-04-27T19:41:26.735Z,7.96
2023-04-27T19:44:12.646Z,8.88
2023-04-27T19:46:58.289Z,8.77
2023-04-27T19:49:43.657Z,8.80
2023-04-27T19:52:30.110Z,7.82
2023-04-27T19:55:16.053Z,8.42
2023-04-27T19:58:01.615Z,8.75
2023-04-27T20:00:47.133Z,8.48
2023-04-27T20:03:32.782Z,8.65
2023-04-27T20:06:20.157Z,7.40
2023-04-27T20:09:05.512Z,8.65
2023-04-27T20:11:51.217Z,7.44
2023-04-27T20:14:38.555Z,8.52
2023-04-27T20:17:27.336Z,7.97
2023-04-27T20:20:13.021Z,8.38
2023-04-27T20:22:58.465Z,8.47
2023-04-27T20:25:43.659Z,7.25
2023-04-27T20:28:30.452Z,7.23
2023-04-27T20:31:16.497Z,8.38
2023-04-27T20:34:01.932Z,7.81
2023-04-27T20:36:47.565Z,8.19
2023-04-27T20:39:33.087Z,7.29
2023-04-27T20:42:18.315Z,7.31
2023-04-27T20:45:05.601Z,7.76
2023-04-27T20:47:52.210Z,8.45
2023-04-27T20:50:39.405Z,8.46
2023-04-27T20:53:26.169Z,7.28
2023-04-27T20:56:12.043Z,8.42
2023-04-27T20:58:57.621Z,7.69
2023-04-27T21:01:43.375Z,8.42
2023-04-27T21:04:28.873Z,8.39
2023-04-27T21:07:15.066Z,8.22
2023-04-27T21:10:06.011Z,8.31
2023-04-27T21:12:51.694Z,8.41
2023-04-27T21:15:38.247Z,8.43
2023-04-27T21:21:14.412Z,8.06
2023-04-27T21:24:19.510Z,7.18
2023-04-27T21:27:04.974Z,8.07
2023-04-27T21:29:50.366Z,7.25
2023-04-27T21:32:35.622Z,7.21
2023-04-27T21:35:21.338Z,8.04
2023-04-27T21:38:06.858Z,7.99
2023-04-27T21:40:52.179Z,7.98
2023-04-27T21:43:41.849Z,8.21
2023-04-27T21:46:27.095Z,7.24
2023-04-27T21:49:12.389Z,7.25
2023-04-27T21:51:57.904Z,8.13
2023-04-27T21:54:43.249Z,7.14
2023-04-27T21:57:30.893Z,8.05
2023-04-27T22:00:18.048Z,7.89
2023-04-27T22:03:03.954Z,7.99
2023-04-27T22:05:50.331Z,6.74
2023-04-27T22:08:35.808Z,7.90
2023-04-27T22:11:21.320Z,7.49
2023-04-27T22:14:06.804Z,6.72
2023-04-27T22:16:52.186Z,7.59
2023-04-27T22:19:37.980Z,7.19
2023-04-27T22:22:23.357Z,7.54
2023-04-27T22:25:10.708Z,7.50
2023-04-27T22:27:56.218Z,6.76
2023-04-27T22:30:42.316Z,7.48
2023-04-27T22:33:27.647Z,6.28
2023-04-27T22:36:13.628Z,7.63
2023-04-27T22:38:59.336Z,7.68
2023-04-27T22:41:46.265Z,6.31
2023-04-27T22:44:31.974Z,7.54
2023-04-27T22:47:18.100Z,7.82
2023-04-27T22:50:04.791Z,7.82
2023-04-27T22:52:52.976Z,6.78
2023-04-27T22:55:38.617Z,7.86
2023-04-27T22:58:24.033Z,7.90
2023-04-27T23:01:09.534Z,6.93
2023-04-27T23:03:55.110Z,6.66
2023-04-27T23:06:42.016Z,7.41
2023-04-27T23:09:27.789Z,6.71
2023-04-27T23:12:13.856Z,6.98
2023-04-27T23:14:59.253Z,7.15
2023-04-27T23:17:44.852Z,7.87
2023-04-27T23:20:30.057Z,6.79
2023-04-27T23:23:15.549Z,6.71
2023-04-27T23:26:01.616Z,6.64
2023-04-27T23:28:47.974Z,7.83
2023-04-27T23:31:33.444Z,7.03
2023-04-27T23:34:19.050Z,7.53
2023-04-27T23:37:04.747Z,7.80
2023-04-27T23:39:50.754Z,6.60
2023-04-27T23:42:36.152Z,6.81
2023-04-27T23:45:21.524Z,7.01
2023-04-27T23:48:06.953Z,7.73
2023-04-27T23:51:03.039Z,7.11
2023-04-27T23:53:48.361Z,7.68
2023-04-27T23:56:33.975Z,7.41
2023-04-27T23:59:19.767Z,7.53
